Cape Lookout National Seasho, North Carolina
Current Conditions -  °F | °C
As of 4:58 PM on Friday 28 Nov 2014 (Local Time) from KMRH Reporting Station
Clear Clear  
Wind Chill: 37°   Ceiling: Unl
Heat Index: 42°   Visibility: 10mi
Dew Point: 25°   Wind: 8mph
Humidity: 51%   Direction: 330°NNW
Pressure: 30.31"   Gusts: NA
Location:  34.8465°N, 76.6069°W
Report Text: KMRH 282158Z AUTO 33007KT 10SM CLR 06/M04 A3031 RMK AO2 SLP263 T00561039 TSNO
Loading
Personal Weather Stations






























Interactive Weather Map New forecast layout! Learn more

10-Day Weather Forecast

Advertisements
Track Severe Weather on mobile